Ashland, Alabama
Current Conditions -  °F | °C
As of 1:53 PM on Saturday 20 Dec 2014 (Local Time) from KANB Reporting Station
Overcast Overcast  
Wind Chill: 48°   Ceiling: 1600
Heat Index: 48°   Visibility: 10mi
Dew Point: 42°   Wind: 3mph
Humidity: 80%   Direction: NA
Pressure: 30.17"   Gusts: NA
Location:  33.27°N, 85.84°W
Report Text: KANB 201953Z AUTO VRB03KT 10SM OVC016 09/06 A3017 RMK AO2 SLP223 T00890056
Loading
Personal Weather Stations






























Interactive Weather Map New forecast layout! Learn more

10-Day Weather Forecast

Advertisements
Track Severe Weather on mobile